Terminal Aerodrome Forecast
Issued by NWS

Home | Current Version | Previous Version | Graphics & Text | Print | Product List | Glossary On
Versions: 1 2 3 4 5 6 7 8 9 10 11 12 13 14 15 16 17 18 19 20 21 22
352
FTUS43 KBIS 220533
TAFDIK
TAF
KDIK 220533Z 2206/2306 14018G27KT P6SM OVC035
     FM221300 15020G30KT P6SM OVC015
     FM221700 16019G28KT P6SM SCT025
     FM222000 17016G24KT P6SM SCT130
     FM230000 17010KT P6SM SCT200=

USA.gov is the U.S. government's official web portal to all federal, state and local government web resources and services.